Time;durP1;ratioP1;P1;durP2;ratioP2;P2;SDS_P1;SDS_P2;PMS_P1;PMS_P2;Temp;Humidity;BMP_temperature;BMP_pressure;BME280_temperature;BME280_humidity;BME280_pressure;Samples;Min_cycle;Max_cycle;Signal;HPM_P1;HPM_P2
2023/06/27 04:07:33;;;;;;;10.48;6.50;;;;;;;20.77;66.23;100140.53;5606747;31;76801;-60
2023/06/27 04:10:36;;;;;;;7.50;5.82;;;;;;;20.77;66.23;100140.53;5603190;31;34087;-60
2023/06/27 04:13:38;;;;;;;13.57;5.87;;;;;;;20.39;68.97;100130.25;5603463;31;34264;-60
2023/06/27 04:16:40;;;;;;;8.13;5.70;;;;;;;20.59;66.74;100128.41;5603342;31;33510;-60
2023/06/27 04:19:43;;;;;;;9.68;6.28;;;;;;;20.62;66.79;100142.13;5603516;31;33528;-60
2023/06/27 04:22:46;;;;;;;7.30;5.40;;;;;;;20.72;66.70;100150.88;5603477;31;34300;-60
2023/06/27 04:26:07;;;;;;;9.25;6.03;;;;;;;20.69;66.80;100154.31;5603017;31;33417;-60
2023/06/27 04:29:10;;;;;;;7.30;5.72;;;;;;;20.71;68.46;100161.00;5603237;31;33544;-60
2023/06/27 04:32:12;;;;;;;7.30;4.85;;;;;;;20.79;67.95;100173.63;5603042;31;33870;-60
2023/06/27 04:35:18;;;;;;;8.40;5.93;;;;;;;20.85;75.07;100174.94;5603098;31;33782;-60
2023/06/27 04:38:20;;;;;;;8.38;5.80;;;;;;;20.79;71.45;100170.91;5603008;31;33643;-60
2023/06/27 04:41:23;;;;;;;8.65;5.85;;;;;;;20.87;68.95;100171.88;5601933;31;33523;-60
2023/06/27 04:44:25;;;;;;;10.48;5.75;;;;;;;20.97;68.63;100165.09;5602438;31;33149;-60
2023/06/27 04:47:27;;;;;;;8.80;6.32;;;;;;;20.96;69.55;100158.03;5602667;31;34229;-60
2023/06/27 04:50:30;;;;;;;8.45;5.93;;;;;;;21.06;70.25;100161.03;5602930;31;34260;-60
2023/06/27 04:53:32;;;;;;;10.40;5.90;;;;;;;21.08;71.74;100147.03;5603295;31;33701;-60
2023/06/27 04:56:35;;;;;;;10.82;5.85;;;;;;;21.15;69.07;100165.47;5601865;31;33736;-60
2023/06/27 04:59:38;;;;;;;9.27;6.43;;;;;;;21.17;69.56;100157.75;5603070;31;33496;-60
2023/06/27 05:02:40;;;;;;;10.50;6.50;;;;;;;21.11;75.07;100159.94;5602419;31;35250;-60
2023/06/27 05:05:51;;;;;;;7.93;6.22;;;;;;;21.07;77.35;100169.97;5601668;31;33617;-60
2023/06/27 05:08:54;;;;;;;8.15;5.78;;;;;;;21.06;82.00;100161.03;5602610;31;34272;-60
2023/06/27 05:11:56;;;;;;;8.60;6.20;;;;;;;21.19;77.18;100158.97;5601634;31;33657;-60
2023/06/27 05:14:58;;;;;;;8.20;5.93;;;;;;;21.18;79.66;100164.75;5602628;31;33658;-60
2023/06/27 05:18:07;;;;;;;7.53;6.40;;;;;;;21.26;76.63;100161.06;5593047;31;33548;-58
2023/06/27 05:21:09;;;;;;;10.73;6.20;;;;;;;21.30;79.66;100154.53;5589415;31;34282;-59
2023/06/27 05:24:11;;;;;;;8.23;5.70;;;;;;;21.36;73.67;100152.34;5588958;31;33540;-59
2023/06/27 05:27:14;;;;;;;8.82;5.45;;;;;;;21.43;74.05;100166.13;5587970;31;33587;-58
2023/06/27 05:30:16;;;;;;;8.65;5.50;;;;;;;21.41;71.06;100175.78;5588727;31;34812;-58
2023/06/27 05:33:18;;;;;;;10.15;5.97;;;;;;;21.58;75.71;100178.09;5589175;31;33615;-58
2023/06/27 05:36:21;;;;;;;10.13;6.53;;;;;;;21.61;76.18;100176.59;5589242;31;33547;-59
2023/06/27 05:39:23;;;;;;;14.15;6.57;;;;;;;21.75;73.18;100179.59;5589105;31;33700;-59
2023/06/27 05:42:26;;;;;;;11.27;6.25;;;;;;;21.98;79.21;100174.94;5589034;31;33537;-58
2023/06/27 05:45:29;;;;;;;9.63;6.60;;;;;;;22.10;74.91;100170.50;5588629;31;33713;-58
2023/06/27 05:48:32;;;;;;;9.80;6.60;;;;;;;22.28;76.78;100168.88;5588800;31;33293;-58
2023/06/27 05:51:35;;;;;;;11.35;7.18;;;;;;;22.37;79.84;100165.91;5588765;31;34492;-58
2023/06/27 05:54:37;;;;;;;10.90;7.60;;;;;;;22.52;77.61;100184.91;5587875;31;34676;-59
2023/06/27 05:57:40;;;;;;;9.30;6.80;;;;;;;22.87;74.30;100185.81;5587531;31;34155;-59
2023/06/27 06:00:42;;;;;;;12.48;7.72;;;;;;;23.06;75.36;100177.53;5588708;31;33672;-59
2023/06/27 06:03:45;;;;;;;10.85;7.53;;;;;;;23.21;72.78;100178.50;5588878;31;32154;-59
2023/06/27 06:06:47;;;;;;;12.05;8.15;;;;;;;23.38;72.31;100171.72;5588896;31;33543;-59
2023/06/27 06:09:50;;;;;;;9.20;7.53;;;;;;;23.27;66.47;100165.31;5588686;31;33572;-59
2023/06/27 06:12:52;;;;;;;10.30;7.90;;;;;;;23.33;71.24;100161.09;5589033;31;33698;-59
2023/06/27 06:15:55;;;;;;;12.73;7.97;;;;;;;23.24;67.96;100157.84;5579502;31;33529;-60
2023/06/27 06:18:57;;;;;;;14.95;8.13;;;;;;;23.18;68.72;100152.72;5569298;32;34182;-58
2023/06/27 06:22:00;;;;;;;9.40;7.80;;;;;;;23.16;68.82;100154.22;5572326;31;34045;-59
2023/06/27 06:25:03;;;;;;;10.90;7.65;;;;;;;23.21;68.48;100162.91;5576502;31;33635;-59
2023/06/27 06:28:05;;;;;;;16.23;8.23;;;;;;;23.17;67.97;100164.00;5570035;31;33280;-60
2023/06/27 06:31:10;;;;;;;18.50;8.00;;;;;;;23.17;68.49;100172.22;5574198;31;34372;-60
2023/06/27 06:34:13;;;;;;;13.77;7.85;;;;;;;23.23;68.30;100165.25;5573736;31;34855;-60
2023/06/27 06:37:16;;;;;;;11.77;8.57;;;;;;;23.28;69.04;100173.16;5577485;31;34887;-61
2023/06/27 06:40:19;;;;;;;14.30;8.25;;;;;;;23.30;69.91;100180.97;5579332;31;33552;-61
2023/06/27 06:43:25;;;;;;;11.38;8.25;;;;;;;23.37;69.82;100181.06;5567901;31;33875;-60
2023/06/27 06:46:28;;;;;;;11.90;8.55;;;;;;;23.38;68.50;100177.97;5573638;31;33287;-60
2023/06/27 06:49:30;;;;;;;12.60;7.97;;;;;;;23.42;68.35;100178.00;5578602;31;34243;-60
2023/06/27 06:52:32;;;;;;;13.45;8.40;;;;;;;23.43;69.66;100191.31;5587591;31;33568;-60
2023/06/27 06:55:35;;;;;;;11.07;7.72;;;;;;;23.36;67.57;100190.44;5587797;31;33633;-60
2023/06/27 06:58:37;;;;;;;11.18;8.05;;;;;;;23.36;67.78;100193.16;5587966;31;33975;-61
2023/06/27 07:01:41;;;;;;;10.93;8.15;;;;;;;23.27;69.38;100196.16;5588085;31;33567;-60
2023/06/27 07:04:43;;;;;;;8.90;7.95;;;;;;;23.21;69.71;100206.66;5582204;31;33640;-60
2023/06/27 07:07:46;;;;;;;10.38;7.80;;;;;;;23.23;70.01;100205.50;5568374;32;33922;-60
2023/06/27 07:10:48;;;;;;;11.90;8.02;;;;;;;23.18;69.64;100212.09;5568571;32;34396;-60
2023/06/27 07:13:51;;;;;;;10.55;7.78;;;;;;;23.18;69.96;100228.50;5579075;31;33654;-61
2023/06/27 07:16:54;;;;;;;10.70;8.07;;;;;;;23.20;70.26;100229.69;5568029;31;34352;-60
2023/06/27 07:19:56;;;;;;;12.32;7.72;;;;;;;23.23;70.88;100233.63;5575582;31;33800;-60
2023/06/27 07:22:58;;;;;;;10.32;7.00;;;;;;;23.22;73.06;100226.59;5576181;31;33550;-60
2023/06/27 07:26:01;;;;;;;9.40;7.75;;;;;;;23.22;74.16;100232.06;5586418;31;34168;-60
2023/06/27 07:29:03;;;;;;;8.50;7.47;;;;;;;23.29;72.85;100234.88;5587045;31;33644;-60
2023/06/27 07:32:06;;;;;;;13.70;8.48;;;;;;;23.49;71.07;100237.50;5584590;31;34186;-60
2023/06/27 07:35:08;;;;;;;11.30;8.02;;;;;;;23.33;68.80;100249.41;5582235;31;33187;-60
2023/06/27 07:38:11;;;;;;;11.23;8.00;;;;;;;23.31;69.81;100257.19;5583209;31;33298;-62
2023/06/27 07:41:13;;;;;;;9.07;7.68;;;;;;;23.38;70.12;100254.56;5569218;31;33709;-61
2023/06/27 07:44:15;;;;;;;10.48;8.05;;;;;;;23.49;71.04;100245.72;5578960;31;33614;-62
2023/06/27 07:47:18;;;;;;;9.10;7.87;;;;;;;23.46;69.99;100241.75;5574955;31;33745;-62
2023/06/27 07:50:20;;;;;;;11.12;8.32;;;;;;;23.44;70.29;100244.88;5577624;31;34133;-62
2023/06/27 07:53:23;;;;;;;11.40;9.10;;;;;;;23.47;69.04;100246.06;5574504;31;33587;-61
2023/06/27 07:56:27;;;;;;;13.75;9.10;;;;;;;23.43;69.32;100248.75;5571248;31;34335;-61
2023/06/27 07:59:29;;;;;;;12.63;8.10;;;;;;;23.47;71.06;100250.75;5567823;32;33393;-61
2023/06/27 08:02:31;;;;;;;10.63;8.07;;;;;;;23.54;71.29;100251.66;5584394;31;34426;-61
2023/06/27 08:05:35;;;;;;;11.38;8.93;;;;;;;23.62;69.52;100252.53;5585863;31;33151;-61
2023/06/27 08:08:37;;;;;;;13.32;9.15;;;;;;;23.67;69.90;100250.25;5578309;31;33271;-61
2023/06/27 08:11:40;;;;;;;13.40;9.15;;;;;;;23.67;68.17;100247.53;5587080;31;33537;-62
2023/06/27 08:14:45;;;;;;;12.27;8.52;;;;;;;23.67;68.05;100252.19;5587010;31;34342;-62
2023/06/27 08:17:48;;;;;;;10.63;7.80;;;;;;;23.65;69.52;100260.78;5579786;31;33295;-62
2023/06/27 08:20:50;;;;;;;13.50;8.88;;;;;;;23.76;71.72;100258.19;5580980;31;33690;-62
2023/06/27 08:23:52;;;;;;;9.65;8.10;;;;;;;23.79;69.41;100260.19;5581995;31;33718;-61
2023/06/27 08:26:55;;;;;;;9.43;8.40;;;;;;;23.92;71.07;100258.78;5586044;31;33627;-61
2023/06/27 08:29:58;;;;;;;13.35;8.90;;;;;;;23.91;68.54;100261.91;5583091;31;34249;-61
2023/06/27 08:33:00;;;;;;;13.32;8.23;;;;;;;23.89;69.36;100259.53;5572441;31;34406;-61
2023/06/27 08:36:03;;;;;;;11.95;8.60;;;;;;;24.02;72.33;100254.59;5576951;31;33661;-62
2023/06/27 08:39:05;;;;;;;9.50;8.13;;;;;;;24.15;70.43;100255.13;5573030;31;33739;-61
2023/06/27 08:42:07;;;;;;;12.27;8.23;;;;;;;24.24;68.54;100243.84;5573141;31;33119;-61
2023/06/27 08:45:10;;;;;;;11.82;8.38;;;;;;;24.21;69.62;100241.88;5583142;31;33607;-61
2023/06/27 08:48:14;;;;;;;11.32;8.40;;;;;;;24.18;66.15;100243.44;5567135;32;33778;-61
2023/06/27 08:51:21;;;;;;;9.18;8.27;;;;;;;24.11;66.68;100255.09;5568176;31;33251;-62
2023/06/27 08:54:32;;;;;;;14.87;8.57;;;;;;;24.09;67.16;100267.56;5578176;31;33759;-61
2023/06/27 08:57:36;;;;;;;11.20;8.38;;;;;;;24.03;69.42;100249.91;5580250;31;33325;-61
2023/06/27 09:00:39;;;;;;;11.02;8.25;;;;;;;23.90;69.32;100261.09;5571967;31;33244;-61
2023/06/27 09:03:41;;;;;;;11.05;8.45;;;;;;;23.97;71.22;100249.44;5574938;31;33856;-61
2023/06/27 09:06:47;;;;;;;10.57;9.10;;;;;;;23.90;68.90;100255.62;5571532;31;33130;-61
2023/06/27 09:09:50;;;;;;;9.65;8.65;;;;;;;23.79;69.66;100256.66;5581378;31;34309;-62
2023/06/27 09:12:56;;;;;;;10.30;9.20;;;;;;;23.77;69.85;100267.19;5574954;31;33700;-62
2023/06/27 09:15:58;;;;;;;10.93;9.50;;;;;;;23.84;69.25;100270.81;5587964;31;33718;-62
2023/06/27 09:19:01;;;;;;;11.55;8.60;;;;;;;23.73;70.97;100261.69;5588582;31;33767;-62
2023/06/27 09:22:05;;;;;;;12.43;9.10;;;;;;;23.84;73.49;100276.31;5588395;31;34418;-62
2023/06/27 09:25:15;;;;;;;12.25;8.77;;;;;;;23.92;71.05;100280.69;5588961;31;33322;-62
2023/06/27 09:28:17;;;;;;;12.27;9.38;;;;;;;23.98;71.40;100275.69;5574600;31;34269;-61
2023/06/27 09:31:21;;;;;;;13.80;8.20;;;;;;;23.89;69.35;100278.69;5573364;31;33649;-62
2023/06/27 09:34:27;;;;;;;20.20;10.20;;;;;;;24.01;71.64;100279.62;5569748;31;33647;-62
2023/06/27 09:37:33;;;;;;;12.45;9.80;;;;;;;24.16;71.68;100281.34;5584790;31;33737;-62
2023/06/27 09:40:39;;;;;;;10.10;8.75;;;;;;;24.20;71.66;100279.44;5588420;31;33678;-62
2023/06/27 09:43:41;;;;;;;12.27;8.88;;;;;;;24.22;71.69;100279.06;5577801;31;33692;-62
2023/06/27 09:46:45;;;;;;;8.23;7.40;;;;;;;24.30;70.36;100270.53;5576846;31;34145;-62
2023/06/27 09:49:48;;;;;;;12.10;9.23;;;;;;;24.29;69.67;100274.44;5572866;31;33781;-62
2023/06/27 09:52:57;;;;;;;10.95;8.43;;;;;;;24.26;69.53;100285.38;5579428;31;34376;-62
2023/06/27 09:56:00;;;;;;;13.90;8.95;;;;;;;24.34;69.25;100287.81;5576551;31;33900;-62
2023/06/27 09:59:08;;;;;;;11.48;9.27;;;;;;;24.47;71.03;100285.63;5580429;31;34170;-59
2023/06/27 10:02:29;;;;;;;12.73;8.25;;;;;;;24.53;67.20;100286.84;5582198;31;33834;-59
2023/06/27 10:05:32;;;;;;;8.90;8.00;;;;;;;24.48;66.66;100291.87;5578566;31;33592;-59
2023/06/27 10:08:44;;;;;;;10.98;8.52;;;;;;;24.50;67.97;100293.09;5582011;31;34215;-60
2023/06/27 10:11:46;;;;;;;10.18;8.32;;;;;;;24.49;68.08;100296.19;5577957;31;33722;-59
2023/06/27 10:14:50;;;;;;;9.98;7.57;;;;;;;24.49;68.35;100287.97;5580377;31;33644;-60
2023/06/27 10:17:52;;;;;;;10.15;7.75;;;;;;;24.54;68.38;100282.16;5573586;31;32274;-61
2023/06/27 10:20:56;;;;;;;8.75;7.78;;;;;;;24.53;65.18;100281.34;5574812;31;33708;-60
2023/06/27 10:24:04;;;;;;;9.13;7.90;;;;;;;24.54;66.39;100290.38;5577604;31;33710;-59
2023/06/27 10:27:09;;;;;;;11.55;7.70;;;;;;;24.55;67.07;100287.25;5578886;31;33316;-60
2023/06/27 10:30:18;;;;;;;8.98;7.35;;;;;;;24.51;66.68;100288.41;5571236;31;34335;-59
2023/06/27 10:33:27;;;;;;;10.88;7.87;;;;;;;24.50;64.57;100295.03;5574186;31;33719;-59
2023/06/27 10:37:00;;;;;;;8.60;7.60;;;;;;;24.39;65.76;100281.19;5572527;31;34259;-60
2023/06/27 10:40:08;;;;;;;12.23;7.32;;;;;;;24.41;68.49;100298.09;5579477;31;33754;-59
2023/06/27 10:43:45;;;;;;;11.15;6.97;;;;;;;24.36;66.20;100293.69;5579257;31;34357;-58
2023/06/27 10:46:47;;;;;;;9.40;7.15;;;;;;;24.38;68.01;100307.03;5583591;31;34462;-59
2023/06/27 10:49:54;;;;;;;11.95;7.00;;;;;;;24.34;64.66;100322.66;5577404;31;34393;-60
2023/06/27 10:53:02;;;;;;;10.20;7.15;;;;;;;24.27;64.06;100322.53;5576601;31;33133;-60
2023/06/27 10:56:16;;;;;;;8.63;6.35;;;;;;;24.17;64.21;100325.94;5579168;31;33741;-59
2023/06/27 10:59:22;;;;;;;8.85;6.32;;;;;;;24.10;64.64;100326.66;5578523;31;33619;-59
2023/06/27 11:02:32;;;;;;;7.30;6.30;;;;;;;24.05;64.78;100310.56;5578830;31;33735;-59
2023/06/27 11:05:45;;;;;;;7.93;5.70;;;;;;;24.11;61.93;100322.78;5578187;31;34359;-59
2023/06/27 11:08:56;;;;;;;8.63;5.55;;;;;;;24.02;61.42;100317.56;5577533;31;33606;-61
2023/06/27 11:12:07;;;;;;;10.13;5.07;;;;;;;23.98;60.79;100324.19;5580371;31;34421;-60
2023/06/27 11:15:10;;;;;;;7.78;5.05;;;;;;;23.94;61.45;100337.00;5571240;31;33601;-60
2023/06/27 11:18:17;;;;;;;6.82;5.18;;;;;;;23.90;60.71;100340.50;5577095;31;33722;-60
2023/06/27 11:21:19;;;;;;;7.68;5.85;;;;;;;23.85;62.68;100353.72;5579127;31;33699;-60
2023/06/27 11:24:23;;;;;;;10.30;5.43;;;;;;;23.81;61.82;100366.59;5579537;31;33744;-60
2023/06/27 11:27:30;;;;;;;8.85;6.20;;;;;;;23.70;62.92;100366.41;5579039;31;33658;-60
2023/06/27 11:30:33;;;;;;;7.20;5.97;;;;;;;23.56;62.98;100375.19;5579126;31;33707;-60
2023/06/27 11:33:36;;;;;;;7.43;5.87;;;;;;;23.57;63.55;100395.12;5576004;31;33328;-60
2023/06/27 11:36:39;;;;;;;7.75;6.25;;;;;;;23.61;63.36;100387.78;5570361;31;34305;-58
2023/06/27 11:39:51;;;;;;;10.32;6.03;;;;;;;23.55;62.92;100389.25;5580376;31;33293;-58
2023/06/27 11:43:07;;;;;;;8.13;6.55;;;;;;;23.51;64.37;100385.63;5577384;31;34389;-58
2023/06/27 11:46:09;;;;;;;;;;;;;;;23.51;64.13;100377.44;5582407;31;34411;-58
2023/06/27 11:49:11;;;;;;;6.95;6.25;;;;;;;23.56;65.21;100388.06;5584249;31;34721;-58
2023/06/27 11:52:14;;;;;;;7.78;6.87;;;;;;;23.63;64.87;100401.88;5578613;31;33614;-58
2023/06/27 11:55:16;;;;;;;8.05;6.57;;;;;;;23.64;65.25;100398.78;5586468;31;34352;-58
2023/06/27 11:58:30;;;;;;;7.03;6.32;;;;;;;23.58;65.36;100415.88;5582130;31;33238;-58
2023/06/27 12:01:40;;;;;;;8.45;6.47;;;;;;;23.45;65.29;100399.66;5578168;31;33756;-58
2023/06/27 12:04:42;;;;;;;8.98;6.20;;;;;;;23.38;66.88;100396.81;5583610;31;33731;-58
2023/06/27 12:08:05;;;;;;;12.45;6.43;;;;;;;23.31;66.23;100402.16;5580606;31;33303;-58
2023/06/27 12:11:09;;;;;;;8.18;6.35;;;;;;;23.30;66.03;100405.25;5575059;31;34407;-58
2023/06/27 12:14:21;;;;;;;11.50;6.95;;;;;;;23.26;66.15;100399.72;5578482;31;34397;-58
2023/06/27 12:17:23;;;;;;;9.27;6.40;;;;;;;23.29;66.52;100393.53;5569655;31;33765;-58
2023/06/27 12:20:39;;;;;;;9.90;6.50;;;;;;;23.25;66.00;100379.00;5579680;31;33223;-57
2023/06/27 12:23:42;;;;;;;7.55;6.72;;;;;;;23.29;67.49;100373.59;5580382;31;33728;-57
2023/06/27 12:26:45;;;;;;;9.73;6.93;;;;;;;23.25;68.64;100380.97;5571737;31;33759;-58
2023/06/27 12:29:48;;;;;;;9.43;6.45;;;;;;;23.18;71.02;100385.16;5581710;31;34264;-56
2023/06/27 12:32:50;;;;;;;8.43;6.97;;;;;;;23.16;69.59;100381.19;5588590;31;33742;-57
2023/06/27 12:35:52;;;;;;;9.63;7.07;;;;;;;23.04;72.08;100397.78;5585639;31;33610;-57
2023/06/27 12:38:55;;;;;;;9.40;7.62;;;;;;;23.00;71.85;100386.00;5584129;31;33626;-57
2023/06/27 12:41:57;;;;;;;11.57;7.10;;;;;;;23.08;70.34;100374.81;5580403;31;34389;-57
2023/06/27 12:45:00;;;;;;;7.55;6.37;;;;;;;23.19;71.55;100392.19;5579075;31;33649;-57
2023/06/27 12:48:02;;;;;;;10.13;7.20;;;;;;;23.11;70.64;100393.25;5579358;31;33713;-57
2023/06/27 12:51:05;;;;;;;8.70;7.07;;;;;;;23.01;69.69;100393.03;5582751;31;34307;-57
2023/06/27 12:54:08;;;;;;;9.75;7.12;;;;;;;23.00;72.84;100391.47;5581347;31;33623;-56
2023/06/27 12:57:10;;;;;;;12.95;7.55;;;;;;;23.00;73.31;100388.72;5570311;32;33657;-57
2023/06/27 13:00:19;;;;;;;8.20;6.93;;;;;;;23.05;71.40;100385.69;5570245;32;34308;-57
2023/06/27 13:03:22;;;;;;;9.60;7.03;;;;;;;23.04;70.67;100379.41;5575542;31;34238;-57
2023/06/27 13:06:25;;;;;;;8.98;7.03;;;;;;;23.04;69.23;100356.75;5589305;31;33711;-57
2023/06/27 13:09:27;;;;;;;9.52;7.70;;;;;;;23.07;74.57;100340.41;5579364;31;34332;-56
2023/06/27 13:12:30;;;;;;;9.63;7.40;;;;;;;22.97;70.77;100344.53;5569883;32;33618;-57
2023/06/27 13:15:32;;;;;;;9.48;6.82;;;;;;;23.01;72.17;100350.06;5569277;32;33735;-58
2023/06/27 13:18:47;;;;;;;7.60;6.72;;;;;;;22.98;71.35;100357.09;5570047;32;33684;-57
2023/06/27 13:21:51;;;;;;;9.75;7.37;;;;;;;23.04;70.79;100354.03;5569729;32;34457;-57
2023/06/27 13:24:56;;;;;;;7.97;7.00;;;;;;;23.03;70.82;100363.38;5581500;31;33700;-57
2023/06/27 13:27:58;;;;;;;10.07;6.65;;;;;;;22.95;72.00;100387.09;5578532;31;34473;-60
2023/06/27 13:31:01;;;;;;;8.32;7.05;;;;;;;22.95;71.62;100392.56;5589519;31;34356;-60
2023/06/27 13:34:04;;;;;;;10.45;7.32;;;;;;;22.95;70.83;100381.62;5588837;31;33298;-60
2023/06/27 13:37:06;;;;;;;10.13;7.15;;;;;;;23.02;70.73;100367.28;5589053;31;34375;-60
2023/06/27 13:40:09;;;;;;;15.25;7.78;;;;;;;22.99;69.57;100374.28;5588849;31;34271;-60
2023/06/27 13:43:12;;;;;;;8.73;7.43;;;;;;;23.12;70.87;100366.69;5586701;31;33626;-60
2023/06/27 13:46:14;;;;;;;15.43;7.50;;;;;;;23.08;69.06;100366.63;5589529;31;33748;-60
2023/06/27 13:49:17;;;;;;;13.90;7.03;;;;;;;23.05;69.63;100359.16;5585051;31;33790;-60
2023/06/27 13:52:19;;;;;;;9.05;7.18;;;;;;;23.05;69.60;100344.69;5569246;32;33921;-60
2023/06/27 13:55:23;;;;;;;10.55;6.60;;;;;;;23.08;68.04;100339.28;5569523;32;33602;-60
2023/06/27 13:58:25;;;;;;;8.77;6.72;;;;;;;23.11;67.67;100332.25;5569631;32;33638;-59
2023/06/27 14:01:28;;;;;;;8.20;5.93;;;;;;;23.12;65.40;100336.59;5575907;31;33665;-60
2023/06/27 14:04:30;;;;;;;13.95;5.55;;;;;;;23.12;63.25;100331.91;5587329;31;33637;-60
2023/06/27 14:07:33;;;;;;;10.73;5.72;;;;;;;;;;5588424;31;33685;-60
2023/06/27 14:10:35;;;;;;;11.25;5.28;;;;;;;23.07;63.42;100337.69;5589309;31;34823;-60
2023/06/27 14:13:43;;;;;;;9.10;5.53;;;;;;;23.03;60.82;100339.56;5574942;31;34515;-60
2023/06/27 14:16:46;;;;;;;12.00;5.47;;;;;;;23.01;60.77;100360.22;5583778;31;33421;-60
2023/06/27 14:19:51;;;;;;;10.20;5.15;;;;;;;22.98;60.21;100364.50;5586810;31;33683;-60
2023/06/27 14:22:57;;;;;;;15.43;5.10;;;;;;;22.98;58.59;100369.97;5588900;31;33830;-60
2023/06/27 14:25:59;;;;;;;8.25;5.20;;;;;;;22.88;57.22;100381.44;5588548;31;34625;-60
2023/06/27 14:29:02;;;;;;;8.02;4.35;;;;;;;22.89;58.31;100383.84;5588692;31;34859;-60
2023/06/27 14:32:05;;;;;;;7.15;4.60;;;;;;;22.84;56.86;100380.59;5587084;31;34561;-60
2023/06/27 14:35:07;;;;;;;11.95;4.95;;;;;;;22.82;56.72;100375.50;5580946;31;34411;-60
2023/06/27 14:38:10;;;;;;;7.05;4.70;;;;;;;22.84;58.63;100384.12;5569033;32;33690;-62
2023/06/27 14:41:12;;;;;;;7.28;4.65;;;;;;;22.81;59.28;100387.56;5568799;32;33855;-62
2023/06/27 14:44:14;;;;;;;9.15;5.20;;;;;;;22.74;58.11;100382.75;5579106;31;34334;-62
2023/06/27 14:47:17;;;;;;;7.85;4.25;;;;;;;22.67;58.48;100379.13;5588990;31;33629;-62
2023/06/27 14:50:20;;;;;;;9.25;4.90;;;;;;;22.63;56.97;100370.06;5587503;31;33423;-62
2023/06/27 14:53:22;;;;;;;6.45;4.82;;;;;;;22.57;57.50;100368.78;5588333;31;33732;-62
2023/06/27 14:56:24;;;;;;;6.85;4.35;;;;;;;22.56;63.43;100381.66;5588313;31;34004;-62
2023/06/27 14:59:27;;;;;;;10.82;5.07;;;;;;;22.54;58.71;100364.81;5588190;31;33629;-62
2023/06/27 15:02:29;;;;;;;12.15;4.70;;;;;;;22.51;58.91;100363.59;5584514;31;33686;-62
2023/06/27 15:05:39;;;;;;;13.23;4.90;;;;;;;22.42;59.89;100354.84;5588111;31;34474;-62
2023/06/27 15:08:41;;;;;;;8.60;5.00;;;;;;;22.48;59.54;100349.88;5588044;31;33878;-62
2023/06/27 15:11:44;;;;;;;14.93;5.60;;;;;;;22.49;60.11;100354.22;5587748;31;33633;-62
2023/06/27 15:14:50;;;;;;;13.18;5.30;;;;;;;22.46;59.56;100347.53;5587734;31;34246;-62
2023/06/27 15:17:53;;;;;;;7.45;4.47;;;;;;;22.45;59.65;100345.94;5586129;31;33635;-60
